createdAt,value
2018-07-10T00:02:28.538Z,97.20
2018-07-10T00:07:16.590Z,96.90
2018-07-10T00:11:33.199Z,96.90
2018-07-10T00:14:07.508Z,96.70
2018-07-10T00:16:43.888Z,96.70
2018-07-10T00:19:23.522Z,96.80
2018-07-10T00:21:58.054Z,96.90
2018-07-10T00:24:32.389Z,96.80
2018-07-10T00:27:07.142Z,96.70
2018-07-10T00:32:14.410Z,96.60
2018-07-10T00:34:48.904Z,96.40
2018-07-10T00:37:23.318Z,96.40
2018-07-10T00:39:57.655Z,96.40
2018-07-10T00:42:32.743Z,96.30
2018-07-10T00:45:06.836Z,96.00
2018-07-10T00:50:14.136Z,96.10
2018-07-10T00:55:21.075Z,96.60
2018-07-10T00:57:56.307Z,96.10
2018-07-10T01:00:36.961Z,96.20
2018-07-10T01:03:11.519Z,96.20
2018-07-10T01:05:45.508Z,96.10
2018-07-10T01:08:19.341Z,96.70
2018-07-10T01:11:14.531Z,96.60
2018-07-10T01:13:49.643Z,96.60
2018-07-10T01:16:24.900Z,96.80
2018-07-10T01:19:02.943Z,96.90
2018-07-10T01:21:36.779Z,96.90
2018-07-10T01:24:11.309Z,96.90
2018-07-10T01:26:45.236Z,96.50
2018-07-10T01:29:24.447Z,96.60
2018-07-10T01:31:59.200Z,96.70
2018-07-10T01:34:33.443Z,96.10
2018-07-10T01:37:07.936Z,96.10
2018-07-10T01:39:41.945Z,96.10
2018-07-10T01:42:15.727Z,95.30
2018-07-10T01:44:50.962Z,95.30
2018-07-10T01:47:25.063Z,94.70
2018-07-10T01:55:04.324Z,94.00
2018-07-10T02:00:12.083Z,94.10
2018-07-10T02:02:46.341Z,94.40
2018-07-10T02:07:52.846Z,94.10
2018-07-10T02:10:27.083Z,94.10
2018-07-10T02:13:01.043Z,94.00
2018-07-10T02:18:07.581Z,93.40
2018-07-10T02:21:03.460Z,93.00
2018-07-10T02:26:17.159Z,92.70
2018-07-10T02:28:52.487Z,92.40
2018-07-10T02:31:26.383Z,91.90
2018-07-10T02:34:00.627Z,91.50
2018-07-10T02:36:34.507Z,91.20
2018-07-10T02:39:08.674Z,90.70
2018-07-10T02:41:43.062Z,90.70
2018-07-10T02:44:17.022Z,90.30
2018-07-10T02:46:51.239Z,90.70
2018-07-10T02:49:25.899Z,90.60
2018-07-10T02:52:01.934Z,90.40
2018-07-10T02:54:46.642Z,90.10
2018-07-10T02:57:20.467Z,90.60
2018-07-10T02:59:55.260Z,89.20
2018-07-10T03:02:30.978Z,89.10
2018-07-10T03:05:08.313Z,88.60
2018-07-10T03:07:43.542Z,87.90
2018-07-10T03:10:18.463Z,87.00
2018-07-10T03:12:52.763Z,86.90
2018-07-10T03:15:27.172Z,87.50
2018-07-10T03:18:01.301Z,87.60
2018-07-10T03:20:35.990Z,87.40
2018-07-10T03:25:42.630Z,87.10
2018-07-10T03:28:16.925Z,87.20
2018-07-10T03:30:51.521Z,88.30
2018-07-10T03:35:58.588Z,89.20
2018-07-10T03:38:32.916Z,85.90
2018-07-10T03:43:40.180Z,82.30
2018-07-10T03:46:14.689Z,83.00
2018-07-10T03:48:49.485Z,82.90
2018-07-10T03:56:29.456Z,84.00
2018-07-10T03:59:04.655Z,84.00
2018-07-10T04:01:40.769Z,85.30
2018-07-10T04:04:15.446Z,86.70
2018-07-10T04:06:50.187Z,87.60
2018-07-10T04:09:24.252Z,86.90
2018-07-10T04:11:58.934Z,87.00
2018-07-10T04:17:05.555Z,87.30
2018-07-10T04:19:40.350Z,86.80
2018-07-10T04:24:47.379Z,86.10
2018-07-10T04:28:26.091Z,85.80
2018-07-10T04:31:12.081Z,85.70
2018-07-10T04:36:19.654Z,86.10
2018-07-10T04:38:57.843Z,85.60
2018-07-10T04:41:33.170Z,84.90
2018-07-10T04:44:13.083Z,84.40
2018-07-10T04:46:59.256Z,83.40
2018-07-10T04:49:44.821Z,83.50
2018-07-10T04:52:30.901Z,83.60
2018-07-10T04:55:12.564Z,84.00
2018-07-10T04:58:56.881Z,84.60
2018-07-10T05:04:12.405Z,85.20
2018-07-10T05:06:46.490Z,85.60
2018-07-10T05:09:20.740Z,85.60
2018-07-10T05:11:55.103Z,85.50
2018-07-10T05:17:01.391Z,85.00
2018-07-10T05:19:36.028Z,84.80
2018-07-10T05:24:43.117Z,84.70
2018-07-10T05:29:50.270Z,86.00
2018-07-10T05:32:24.824Z,84.30
2018-07-10T05:34:59.481Z,84.80
2018-07-10T05:37:38.905Z,85.30
2018-07-10T05:42:51.225Z,85.20
2018-07-10T05:48:04.893Z,85.30
2018-07-10T05:50:40.912Z,84.10
2018-07-10T05:53:15.831Z,84.10
2018-07-10T05:55:53.173Z,83.90
2018-07-10T05:58:27.431Z,83.00
2018-07-10T06:01:01.340Z,83.70
2018-07-10T06:03:35.200Z,83.70
2018-07-10T06:06:09.330Z,83.10
2018-07-10T06:08:43.781Z,83.50
2018-07-10T06:11:17.813Z,83.90
2018-07-10T06:13:52.430Z,84.50
2018-07-10T06:16:26.677Z,84.60
2018-07-10T06:19:01.151Z,84.10
2018-07-10T06:21:45.103Z,83.30
2018-07-10T06:24:25.655Z,83.60
2018-07-10T06:27:06.510Z,84.30
2018-07-10T06:29:52.675Z,83.20
2018-07-10T06:32:27.439Z,83.30
2018-07-10T06:35:09.463Z,83.80
2018-07-10T06:37:48.424Z,82.80
2018-07-10T06:40:24.358Z,82.70
2018-07-10T06:46:49.099Z,82.80
2018-07-10T06:49:33.663Z,82.80
2018-07-10T06:52:14.720Z,83.10
2018-07-10T06:57:33.732Z,82.30
2018-07-10T07:00:10.385Z,82.50
2018-07-10T07:02:43.983Z,82.50
2018-07-10T07:05:18.007Z,82.70
2018-07-10T07:07:51.894Z,83.00
2018-07-10T07:10:25.811Z,82.50
2018-07-10T07:13:00.114Z,82.80
2018-07-10T07:15:33.799Z,81.70
2018-07-10T07:18:07.918Z,79.70
2018-07-10T07:20:42.324Z,80.50
2018-07-10T07:25:48.548Z,80.80
2018-07-10T07:28:22.344Z,79.70
2018-07-10T07:30:56.009Z,80.30
2018-07-10T07:36:02.444Z,79.50
2018-07-10T07:38:36.528Z,79.80
2018-07-10T07:41:11.371Z,79.70
2018-07-10T07:43:45.719Z,79.20
2018-07-10T07:46:19.964Z,78.50
2018-07-10T07:51:26.459Z,77.90
2018-07-10T07:54:00.856Z,74.30
2018-07-10T07:56:34.516Z,74.10
2018-07-10T07:59:08.308Z,76.00
2018-07-10T08:01:43.454Z,74.70
2018-07-10T08:04:17.796Z,73.20
2018-07-10T08:06:52.994Z,73.20
2018-07-10T08:09:27.988Z,72.10
2018-07-10T08:14:36.040Z,71.50
2018-07-10T08:17:11.077Z,71.70
2018-07-10T08:19:46.493Z,72.60
2018-07-10T08:24:54.209Z,73.10
2018-07-10T08:27:29.344Z,72.50
2018-07-10T08:32:37.115Z,71.60
2018-07-10T08:35:11.650Z,71.80
2018-07-10T08:37:46.251Z,72.30
2018-07-10T08:40:20.063Z,72.30
2018-07-10T08:42:54.703Z,71.40
2018-07-10T08:45:28.959Z,71.10
2018-07-10T08:48:04.516Z,71.20
2018-07-10T08:50:39.302Z,72.90
2018-07-10T08:53:13.855Z,73.00
2018-07-10T08:55:47.922Z,71.90
2018-07-10T08:58:22.359Z,70.70
2018-07-10T09:03:30.080Z,70.80
2018-07-10T09:08:36.642Z,72.60
2018-07-10T09:11:10.455Z,73.10
2018-07-10T09:13:44.223Z,70.30
2018-07-10T09:16:18.263Z,71.70
2018-07-10T09:18:52.094Z,70.70
2018-07-10T09:21:26.790Z,71.80
2018-07-10T09:24:01.909Z,70.90
2018-07-10T09:26:36.967Z,70.30
2018-07-10T09:29:11.281Z,70.80
2018-07-10T09:31:45.353Z,69.50
2018-07-10T09:34:19.820Z,70.20
2018-07-10T09:36:53.892Z,70.00
2018-07-10T09:39:29.228Z,71.40
2018-07-10T09:42:03.516Z,71.40
2018-07-10T09:44:37.807Z,71.10
2018-07-10T09:52:16.618Z,72.60
2018-07-10T09:54:50.519Z,73.40
2018-07-10T09:57:24.542Z,73.80
2018-07-10T09:59:58.892Z,73.50
2018-07-10T10:02:36.092Z,74.60
2018-07-10T10:05:10.391Z,75.30
2018-07-10T10:07:44.187Z,75.00
2018-07-10T10:10:19.000Z,75.70
2018-07-10T10:12:53.327Z,76.40
2018-07-10T10:15:30.406Z,77.10
2018-07-10T10:18:07.081Z,76.90
2018-07-10T10:20:43.939Z,76.20
2018-07-10T10:23:18.372Z,76.60
2018-07-10T10:25:55.006Z,75.90
2018-07-10T10:28:29.987Z,76.80
2018-07-10T10:31:03.815Z,78.10
2018-07-10T10:36:09.897Z,79.40
2018-07-10T10:38:46.709Z,80.10
2018-07-10T10:41:22.351Z,82.70
2018-07-10T10:43:56.371Z,84.30
2018-07-10T10:46:30.733Z,84.80
2018-07-10T10:51:37.679Z,85.70
2018-07-10T10:54:11.622Z,86.40
2018-07-10T10:56:45.414Z,87.00
2018-07-10T10:59:19.965Z,87.20
2018-07-10T11:06:59.861Z,86.20
2018-07-10T11:09:34.283Z,86.90
2018-07-10T11:12:08.530Z,87.00
2018-07-10T11:14:43.727Z,86.10
2018-07-10T11:17:29.907Z,86.10
2018-07-10T11:22:50.447Z,86.00
2018-07-10T11:25:25.438Z,86.50
2018-07-10T11:30:43.071Z,88.50
2018-07-10T11:33:17.262Z,87.20
2018-07-10T11:35:51.002Z,87.60
2018-07-10T11:40:58.367Z,88.70
2018-07-10T11:43:32.383Z,87.80
2018-07-10T11:46:06.567Z,87.90
2018-07-10T11:48:41.066Z,88.30
2018-07-10T11:51:15.222Z,89.00
2018-07-10T11:53:49.358Z,89.20
2018-07-10T11:56:22.909Z,88.70
2018-07-10T11:58:56.722Z,88.90
2018-07-10T12:01:30.783Z,89.30
2018-07-10T12:04:06.004Z,89.30
2018-07-10T12:06:51.028Z,89.60
2018-07-10T12:09:24.822Z,89.60
2018-07-10T12:11:59.003Z,89.10
2018-07-10T12:14:32.734Z,88.40
2018-07-10T12:19:39.770Z,88.90
2018-07-10T12:22:14.352Z,88.70
2018-07-10T12:24:48.883Z,87.80
2018-07-10T12:27:22.654Z,86.90
2018-07-10T12:29:57.314Z,86.50
2018-07-10T12:32:31.738Z,86.60
2018-07-10T12:35:06.240Z,87.50
2018-07-10T12:40:13.996Z,88.00
2018-07-10T12:42:48.687Z,87.20
2018-07-10T12:45:22.401Z,85.90
2018-07-10T12:47:56.768Z,85.80
2018-07-10T12:50:30.878Z,85.40
2018-07-10T12:55:38.487Z,86.20
2018-07-10T12:58:12.991Z,86.20
2018-07-10T13:00:47.718Z,86.30
2018-07-10T13:03:23.847Z,86.70
2018-07-10T13:06:01.335Z,86.90
2018-07-10T13:08:35.521Z,86.90
2018-07-10T13:11:09.636Z,87.60
2018-07-10T13:16:16.386Z,88.40
2018-07-10T13:18:50.399Z,87.90
2018-07-10T13:21:24.548Z,88.00
2018-07-10T13:26:31.084Z,89.10
2018-07-10T13:29:04.885Z,89.60
2018-07-10T13:31:38.776Z,90.00
2018-07-10T13:34:12.799Z,90.30
2018-07-10T13:36:47.242Z,90.40
2018-07-10T13:39:21.695Z,90.50
2018-07-10T13:41:55.951Z,90.50
2018-07-10T13:44:30.128Z,90.40
2018-07-10T13:52:09.856Z,90.30
2018-07-10T13:54:43.413Z,90.30
2018-07-10T13:57:16.930Z,89.70
2018-07-10T13:59:50.934Z,90.00
2018-07-10T14:02:25.159Z,90.10
2018-07-10T14:04:59.647Z,90.20
2018-07-10T14:12:34.773Z,90.20
2018-07-10T14:17:41.133Z,89.10
2018-07-10T14:20:15.063Z,89.70
2018-07-10T14:22:48.896Z,89.90
2018-07-10T14:25:22.875Z,89.90
2018-07-10T14:27:57.664Z,90.10
2018-07-10T14:30:31.371Z,90.10
2018-07-10T14:33:05.864Z,90.30
2018-07-10T14:38:13.069Z,90.20
2018-07-10T14:43:31.869Z,90.20
2018-07-10T14:46:12.416Z,90.20
2018-07-10T14:48:53.288Z,90.30
2018-07-10T14:51:34.482Z,90.50
2018-07-10T14:54:08.289Z,90.50
2018-07-10T14:56:43.167Z,90.30
2018-07-10T14:59:16.783Z,90.10
2018-07-10T15:04:23.732Z,90.10
2018-07-10T15:06:57.562Z,90.10
2018-07-10T15:09:35.705Z,90.20
2018-07-10T15:12:54.200Z,90.20
2018-07-10T15:15:27.652Z,90.10
2018-07-10T15:20:36.634Z,90.30
2018-07-10T15:23:10.254Z,90.20
2018-07-10T15:25:43.309Z,89.60
2018-07-10T15:28:16.306Z,90.00
2018-07-10T15:30:49.548Z,90.10
2018-07-10T15:33:23.503Z,90.30
2018-07-10T15:35:56.989Z,90.30
2018-07-10T15:38:30.359Z,90.30
2018-07-10T15:41:04.060Z,90.30
2018-07-10T15:43:37.286Z,90.20
2018-07-10T16:11:56.498Z,90.20
2018-07-10T16:14:30.860Z,90.40
2018-07-10T16:17:05.842Z,91.00
2018-07-10T16:19:44.768Z,91.00
2018-07-10T16:22:28.808Z,90.70
2018-07-10T16:25:12.611Z,90.50
2018-07-10T16:27:48.631Z,90.40
2018-07-10T16:30:25.380Z,90.30
2018-07-10T16:32:58.982Z,90.30
2018-07-10T16:35:33.672Z,90.40
2018-07-10T16:38:07.326Z,90.40
2018-07-10T16:40:40.807Z,90.50
2018-07-10T16:43:18.522Z,90.40
2018-07-10T16:45:52.312Z,90.70
2018-07-10T16:48:29.633Z,90.90
2018-07-10T16:51:13.572Z,91.00
2018-07-10T16:53:48.300Z,91.10
2018-07-10T16:56:21.782Z,91.00
2018-07-10T16:58:55.566Z,90.90
2018-07-10T17:01:29.757Z,90.90
2018-07-10T17:04:04.358Z,91.10
2018-07-10T17:06:38.109Z,91.20
2018-07-10T17:09:11.376Z,91.20
2018-07-10T17:11:44.637Z,91.30
2018-07-10T17:14:17.674Z,91.30
2018-07-10T17:16:51.402Z,91.30
2018-07-10T17:19:26.044Z,91.00
2018-07-10T17:21:59.993Z,91.10
2018-07-10T17:24:33.266Z,91.30
2018-07-10T17:27:06.909Z,91.20
2018-07-10T17:29:40.471Z,91.20
2018-07-10T17:32:14.111Z,91.20
2018-07-10T17:34:47.253Z,91.20
2018-07-10T17:37:20.743Z,91.20
2018-07-10T17:39:54.675Z,91.20
2018-07-10T17:42:28.186Z,91.30
2018-07-10T17:47:33.630Z,91.70
2018-07-10T17:50:07.284Z,91.90
2018-07-10T17:52:40.600Z,91.90
2018-07-10T17:55:14.710Z,91.70
2018-07-10T17:57:48.153Z,91.70
2018-07-10T18:00:21.933Z,91.70
2018-07-10T18:02:55.629Z,91.70
2018-07-10T18:05:29.532Z,91.70
2018-07-10T18:08:04.400Z,91.60
2018-07-10T18:10:38.140Z,91.60
2018-07-10T18:13:12.087Z,91.40
2018-07-10T18:15:46.435Z,91.40
2018-07-10T18:18:20.208Z,91.50
2018-07-10T18:20:54.117Z,91.70
2018-07-10T18:23:27.952Z,91.80
2018-07-10T18:26:01.813Z,91.80
2018-07-10T18:28:35.866Z,91.90
2018-07-10T18:31:09.786Z,91.90
2018-07-10T18:33:43.527Z,91.80
2018-07-10T18:36:17.113Z,91.80
2018-07-10T18:38:51.767Z,91.70
2018-07-10T18:41:25.512Z,91.80
2018-07-10T18:43:59.275Z,91.80
2018-07-10T18:46:33.659Z,91.80
2018-07-10T18:49:07.591Z,91.90
2018-07-10T18:51:42.569Z,92.00
2018-07-10T18:54:16.840Z,92.10
2018-07-10T18:56:50.796Z,92.20
2018-07-10T18:59:25.430Z,92.30
2018-07-10T19:02:07.681Z,92.20
2018-07-10T19:05:05.962Z,92.30
2018-07-10T19:07:42.993Z,92.60
2018-07-10T19:10:16.710Z,92.10
2018-07-10T19:12:50.074Z,92.00
2018-07-10T19:15:23.950Z,91.90
2018-07-10T19:17:57.645Z,91.90
2018-07-10T19:20:33.705Z,92.30
2018-07-10T19:23:11.899Z,92.50
2018-07-10T19:25:45.317Z,92.50
2018-07-10T19:28:18.996Z,92.30
2018-07-10T19:31:04.583Z,92.40
2018-07-10T19:33:38.362Z,92.50
2018-07-10T19:36:11.864Z,92.60
2018-07-10T19:38:45.265Z,92.60
2018-07-10T19:41:19.018Z,92.60
2018-07-10T19:43:52.674Z,92.60
2018-07-10T19:46:26.242Z,92.50
2018-07-10T19:49:00.488Z,92.50
2018-07-10T19:51:34.415Z,92.50
2018-07-10T19:54:11.786Z,92.40
2018-07-10T19:56:45.249Z,92.50
2018-07-10T19:59:20.715Z,92.50
2018-07-10T20:02:04.379Z,92.70
2018-07-10T20:04:48.374Z,92.80
2018-07-10T20:07:25.197Z,92.90
2018-07-10T20:11:07.482Z,92.90
2018-07-10T20:13:47.766Z,92.80
2018-07-10T20:16:26.869Z,92.60
2018-07-10T20:19:15.892Z,92.50
2018-07-10T20:24:05.382Z,92.40
2018-07-10T20:27:18.305Z,92.40
2018-07-10T20:29:59.494Z,92.40
2018-07-10T20:32:43.164Z,92.50
2018-07-10T20:35:20.173Z,92.60
2018-07-10T20:37:53.787Z,92.90
2018-07-10T20:40:39.817Z,92.90
2018-07-10T20:45:57.994Z,92.60
2018-07-10T20:49:02.632Z,92.70
2018-07-10T20:51:39.092Z,92.70
2018-07-10T20:57:08.562Z,92.80
2018-07-10T20:59:49.277Z,92.50
2018-07-10T21:02:32.249Z,92.70
2018-07-10T21:05:15.715Z,92.30
2018-07-10T21:07:57.289Z,92.40
2018-07-10T21:12:54.602Z,92.50
2018-07-10T21:15:42.190Z,92.50
2018-07-10T21:19:35.795Z,92.60
2018-07-10T21:22:15.975Z,92.60
2018-07-10T21:24:55.169Z,92.50
2018-07-10T21:27:47.770Z,92.10
2018-07-10T21:30:27.669Z,91.80
2018-07-10T21:33:08.963Z,92.10
2018-07-10T21:35:50.571Z,92.10
2018-07-10T21:40:39.598Z,92.10
2018-07-10T21:43:30.699Z,92.20
2018-07-10T21:46:09.426Z,92.20
2018-07-10T21:49:52.006Z,92.40
2018-07-10T21:52:25.641Z,92.50
2018-07-10T21:54:58.841Z,92.50
2018-07-10T21:57:47.661Z,92.70
2018-07-10T22:00:23.263Z,92.70
2018-07-10T22:02:56.717Z,92.80
2018-07-10T22:05:30.092Z,93.20
2018-07-10T22:08:03.895Z,92.80
2018-07-10T22:10:37.191Z,92.70
2018-07-10T22:13:11.030Z,92.40
2018-07-10T22:15:44.510Z,92.50
2018-07-10T22:18:17.893Z,92.60
2018-07-10T22:20:51.282Z,92.50
2018-07-10T22:23:24.698Z,92.30
2018-07-10T22:25:57.921Z,92.40
2018-07-10T22:28:31.318Z,92.30
2018-07-10T22:31:09.019Z,92.20
2018-07-10T22:33:42.809Z,92.30
2018-07-10T22:36:16.486Z,92.20
2018-07-10T22:38:49.727Z,92.00
2018-07-10T22:41:25.139Z,92.00
2018-07-10T22:43:58.701Z,92.00
2018-07-10T22:46:32.568Z,92.30
2018-07-10T22:49:09.333Z,92.20
2018-07-10T22:54:14.594Z,92.00
2018-07-10T22:56:47.910Z,91.80
2018-07-10T22:59:21.396Z,91.60
2018-07-10T23:04:26.576Z,91.90
2018-07-10T23:07:00.111Z,92.50
2018-07-10T23:09:33.802Z,92.80
2018-07-10T23:12:07.561Z,93.00
2018-07-10T23:17:13.226Z,92.70
2018-07-10T23:19:47.149Z,92.70
2018-07-10T23:22:20.934Z,92.70
2018-07-10T23:24:54.090Z,92.70
2018-07-10T23:27:27.978Z,92.70
2018-07-10T23:30:01.381Z,92.70
2018-07-10T23:32:35.085Z,92.70
2018-07-10T23:35:08.662Z,92.80
2018-07-10T23:37:47.275Z,92.80
2018-07-10T23:40:21.330Z,92.70
2018-07-10T23:42:55.948Z,92.80
2018-07-10T23:45:32.236Z,92.90
2018-07-10T23:48:10.234Z,93.00
2018-07-10T23:50:44.366Z,93.10
2018-07-10T23:53:27.403Z,93.20
2018-07-10T23:56:01.214Z,93.20
2018-07-10T23:58:35.406Z,93.20
